Roebuck, SC

1:11 AM EDT on April 27, 2015 (GMT -0400)
Hobbysville Rd | | Change Station
CLOSE
Current Station
Personal Weather Station
Location: Roebuck, SC
Elevation: 725 ft
Nearby Weather Stations

Elev 725 ft 34.80 °N, 81.98 °W | Updated 22 seconds ago

Clear
Clear
53.8 °F
Feels Like 53.8 °F
N
0.0
Wind Variable Wind from North
Gusts 0.0 mph

Today
High -- | Low -- °F
--% Chance of Precip.
Yesterday
High -- | Low -- °F
Precip. -- in
6:41 AM 8:09 PM
First Quarter, 62% visible
Pressure 29.81 in
Visibility 10.0 miles
Clouds Scattered Clouds 6000 ft
Dew Point Not available.
Humidity Not available.
Rainfall 0.00 in
Snow Depth Not available.
UV 0 out of 12
Pollen 10.10 out of 12
Air Quality Not available.
Flu Activity Local Activity
METAR KSPA 270455Z AUTO 00000KT 10SM SCT060 12/12 A2981 RMK AO2

More Conditions Fewer Conditions

Pressure 29.81 in
Visibility 10.0 miles
Clouds Scattered Clouds 6000 ft
Dew Point Not available.
Humidity Not available.
Rainfall 0.00 in
Snow Depth Not available.
UV 0 out of 12
Pollen 10.10 out of 12
Air Quality Not available.
Flu Activity Local Activity
METAR KSPA 270455Z AUTO 00000KT 10SM SCT060 12/12 A2981 RMK AO2

More Conditions Fewer Conditions

The full scope of the disaster following a powerful 7.8-magnitude earthquake in Nepal may not come into view for days, but global charities are already sending emergency aid. Click to see how you can help.

10-Day Weather Forecast

Almanac

Astronomy

Apr. 27, 2015 Rise Set
Actual Time
Civil Twilight
Nautical Twilight
Astronomical Twilight
Moon
Length of Visible Light
Length of Day
Tomorrow will be .
, % of the Moon is Illuminated

Today's Extremes

State Highs State Lows

Community

WunderPhotos

Upload Photos

1,817,264 photos uploaded!

WunderBlogs® & News

Nearby

Air Quality

  Air Quality AQ Index Pollutant
Not available.

Snow Depth

Station Depth Elevation

Earthquake Activity

City Distance Mag. Time & Date
Minimum magnitude displayed is 2.5.

Coastal Water Temperatures

Place Temperature

Stations

Nearby Weather Stations

Station Location Temp. Windchill Dew Point Humidity Wind Precip. Elev Updated Type